CheckWX is a tool to help pilots better visualize weather data.  It is not intended as a substitute for an official pre-flight weather briefing.

12:58:07 UTC

KPGV METAR
Pitt-Greenville Airport
Greenville, North Carolina, USA
Current

23 mins ago

KPGV 181235Z AUTO 20004KT 10SM SCT004 SCT036 BKN048 08/08 A2995 RMK AO2
Observed
Feb-18 @ 12:35 UTC
Wind
  • 200° at 4 KTS
Visibility
10 SM
Flight Rules
VFR
Cloud Levels
  • Scattered at 400' AGL
  • Scattered at 3,600' AGL
  • Broken at 4,800' AGL
Temperature
C / 46°F
Dewpoint
C / 46°F
Humidity
100%
Altimeter
29.95" Hg
Pressure
1014.22 hPa
Previous

43 mins ago

KPGV 181215Z AUTO 26005KT 10SM SCT004 BKN042 OVC048 07/07 A2995 RMK AO2
Observed
Feb-18 @ 12:15 UTC
Wind
  • 260° at 5 KTS
Visibility
10 SM
Flight Rules
VFR
Cloud Levels
  • Scattered at 400' AGL
  • Broken at 4,200' AGL
  • Overcast at 4,800' AGL
Temperature
C / 45°F
Dewpoint
C / 45°F
Humidity
100%
Altimeter
29.95" Hg
Pressure
1014.22 hPa
Previous

1 hour ago

KPGV 181155Z AUTO 22004KT 10SM SCT004 OVC040 07/07 A2993 RMK AO2
Observed
Feb-18 @ 11:55 UTC
Wind
  • 220° at 4 KTS
Visibility
10 SM
Flight Rules
VFR
Cloud Levels
  • Scattered at 400' AGL
  • Overcast at 4,000' AGL
Temperature
C / 45°F
Dewpoint
C / 45°F
Humidity
100%
Altimeter
29.93" Hg
Pressure
1013.52 hPa